createdAt,value
2022-10-04T00:02:02.812Z,0.88
2022-10-04T00:04:46.800Z,0.80
2022-10-04T00:07:16.944Z,0.95
2022-10-04T00:09:54.981Z,0.60
2022-10-04T00:12:27.456Z,0.80
2022-10-04T00:15:04.166Z,0.73
2022-10-04T00:17:37.324Z,0.80
2022-10-04T00:20:45.795Z,0.60
2022-10-04T00:23:32.498Z,1.02
2022-10-04T00:26:09.229Z,0.70
2022-10-04T00:28:39.453Z,0.90
2022-10-04T00:31:15.246Z,0.60
2022-10-04T00:33:48.523Z,0.70
2022-10-04T00:36:28.075Z,0.70
2022-10-04T00:39:12.564Z,0.60
2022-10-04T00:41:52.073Z,0.60
2022-10-04T00:44:25.871Z,0.70
2022-10-04T00:46:58.835Z,0.70
2022-10-04T00:49:35.027Z,0.77
2022-10-04T00:52:15.485Z,0.70
2022-10-04T00:54:52.821Z,0.90
2022-10-04T00:57:37.413Z,0.60
2022-10-04T01:00:23.599Z,1.45
2022-10-04T01:03:26.848Z,0.95
2022-10-04T01:06:01.207Z,0.70
2022-10-04T01:08:53.981Z,0.80
2022-10-04T01:11:47.256Z,0.80
2022-10-04T01:14:27.696Z,0.63
2022-10-04T01:16:58.204Z,0.55
2022-10-04T01:19:28.497Z,0.60
2022-10-04T01:22:13.144Z,0.70
2022-10-04T01:24:45.881Z,0.60
2022-10-04T01:27:45.736Z,1.02
2022-10-04T01:30:21.996Z,0.88
2022-10-04T01:32:53.079Z,0.63
2022-10-04T01:35:23.373Z,0.80
2022-10-04T01:37:53.617Z,0.70
2022-10-04T01:40:23.928Z,1.00
2022-10-04T01:42:58.953Z,0.70
2022-10-04T01:45:42.819Z,0.60
2022-10-04T01:48:18.946Z,0.68
2022-10-04T01:51:01.051Z,0.85
2022-10-04T01:53:43.010Z,0.70
2022-10-04T01:56:32.512Z,0.70
2022-10-04T01:59:06.936Z,0.50
2022-10-04T02:02:06.548Z,0.90
2022-10-04T02:04:41.309Z,0.60
2022-10-04T02:07:16.562Z,0.85
2022-10-04T02:09:52.014Z,0.90
2022-10-04T02:12:22.871Z,0.80
2022-10-04T02:14:57.277Z,0.70
2022-10-04T02:17:34.398Z,0.80
2022-10-04T02:20:05.726Z,0.50
2022-10-04T02:22:36.269Z,0.57
2022-10-04T02:25:07.030Z,0.77
2022-10-04T02:27:37.433Z,0.68
2022-10-04T02:30:11.509Z,0.50
2022-10-04T02:32:59.983Z,0.70
2022-10-04T02:35:37.342Z,0.85
2022-10-04T02:38:21.786Z,0.85
2022-10-04T02:41:07.057Z,0.90
2022-10-04T02:43:59.470Z,0.60
2022-10-04T02:47:11.974Z,0.80
2022-10-04T02:49:54.789Z,0.70
2022-10-04T02:52:28.422Z,0.70
2022-10-04T02:55:18.709Z,0.70
2022-10-04T02:58:32.367Z,0.50
2022-10-04T03:01:16.110Z,0.68
2022-10-04T03:03:49.540Z,0.52
2022-10-04T03:06:22.817Z,0.70
2022-10-04T03:09:03.465Z,0.70
2022-10-04T03:11:39.105Z,0.60
2022-10-04T03:14:22.655Z,0.70
2022-10-04T03:17:02.455Z,0.80
2022-10-04T03:19:34.777Z,1.02
2022-10-04T03:22:12.515Z,1.00
2022-10-04T03:24:55.582Z,0.90
2022-10-04T03:27:35.843Z,1.20
2022-10-04T03:30:06.665Z,1.20
2022-10-04T03:32:37.105Z,1.05
2022-10-04T03:35:10.421Z,1.00
2022-10-04T03:37:43.043Z,0.98
2022-10-04T03:40:14.145Z,1.25
2022-10-04T03:42:46.761Z,0.90
2022-10-04T03:45:20.783Z,0.90
2022-10-04T03:47:53.415Z,1.13
2022-10-04T03:50:35.239Z,1.30
2022-10-04T03:53:44.766Z,1.02
2022-10-04T03:56:43.546Z,0.82
2022-10-04T03:59:19.896Z,1.13
2022-10-04T04:02:33.304Z,1.17
2022-10-04T04:05:33.342Z,0.90
2022-10-04T04:08:30.518Z,1.00
2022-10-04T04:11:04.605Z,1.15
2022-10-04T04:14:01.237Z,1.30
2022-10-04T04:16:31.623Z,1.45
2022-10-04T04:19:06.092Z,1.38
2022-10-04T04:21:36.417Z,1.10
2022-10-04T04:24:14.069Z,1.00
2022-10-04T04:26:51.378Z,1.13
2022-10-04T04:29:25.142Z,1.30
2022-10-04T04:32:03.207Z,1.27
2022-10-04T04:34:50.992Z,1.30
2022-10-04T04:37:22.152Z,1.38
2022-10-04T04:39:59.553Z,1.10
2022-10-04T04:42:34.001Z,1.20
2022-10-04T04:45:20.715Z,1.23
2022-10-04T04:48:02.812Z,1.30
2022-10-04T04:50:42.094Z,1.08
2022-10-04T04:53:18.430Z,1.27
2022-10-04T04:56:10.947Z,1.55
2022-10-04T04:58:48.245Z,1.30
2022-10-04T05:01:28.901Z,1.35
2022-10-04T05:04:05.159Z,1.30
2022-10-04T05:06:37.444Z,1.25
2022-10-04T05:09:08.782Z,1.17
2022-10-04T05:11:41.427Z,1.15
2022-10-04T05:14:14.794Z,1.30
2022-10-04T05:16:56.728Z,1.15
2022-10-04T05:19:32.828Z,1.08
2022-10-04T05:22:12.824Z,1.02
2022-10-04T05:24:51.022Z,0.98
2022-10-04T05:27:41.884Z,1.23
2022-10-04T05:30:26.161Z,0.90
2022-10-04T05:33:07.042Z,1.00
2022-10-04T05:36:04.893Z,1.20
2022-10-04T05:39:10.888Z,1.00
2022-10-04T05:41:59.440Z,1.05
2022-10-04T05:44:37.924Z,0.90
2022-10-04T05:47:11.030Z,1.02
2022-10-04T05:49:51.011Z,1.27
2022-10-04T05:52:32.121Z,0.93
2022-10-04T05:55:20.812Z,0.80
2022-10-04T05:58:08.598Z,1.02
2022-10-04T06:00:53.454Z,0.85
2022-10-04T06:03:34.244Z,0.95
2022-10-04T06:06:11.897Z,1.20
2022-10-04T06:09:15.973Z,0.80
2022-10-04T06:11:54.770Z,1.13
2022-10-04T06:14:32.571Z,1.25
2022-10-04T06:17:39.905Z,1.33
2022-10-04T06:20:15.858Z,1.00
2022-10-04T06:23:08.225Z,0.68
2022-10-04T06:26:07.873Z,1.05
2022-10-04T06:28:49.991Z,0.98
2022-10-04T06:31:38.112Z,0.95
2022-10-04T06:34:17.219Z,1.05
2022-10-04T06:37:17.276Z,0.70
2022-10-04T06:40:00.477Z,0.90
2022-10-04T06:43:03.985Z,0.73
2022-10-04T06:45:52.294Z,0.80
2022-10-04T06:48:29.529Z,1.20
2022-10-04T06:51:44.876Z,1.02
2022-10-04T06:54:42.170Z,0.80
2022-10-04T06:57:40.642Z,0.80
2022-10-04T07:00:29.684Z,1.00
2022-10-04T07:03:40.149Z,0.75
2022-10-04T07:06:12.963Z,0.75
2022-10-04T07:08:49.712Z,1.00
2022-10-04T07:11:51.885Z,0.95
2022-10-04T07:14:33.955Z,1.23
2022-10-04T07:17:14.027Z,0.88
2022-10-04T07:19:52.999Z,1.13
2022-10-04T07:22:28.198Z,0.80
2022-10-04T07:25:10.209Z,1.00
2022-10-04T07:28:22.551Z,1.20
2022-10-04T07:31:08.009Z,0.80
2022-10-04T07:33:50.449Z,1.25
2022-10-04T07:36:50.673Z,1.23
2022-10-04T07:39:35.826Z,1.02
2022-10-04T07:42:24.195Z,0.88
2022-10-04T07:45:19.671Z,0.90
2022-10-04T07:47:50.591Z,1.00
2022-10-04T07:50:31.897Z,1.10
2022-10-04T07:53:35.402Z,1.05
2022-10-04T07:56:27.781Z,0.88
2022-10-04T07:59:12.817Z,0.90
2022-10-04T08:01:50.823Z,1.08
2022-10-04T08:04:33.053Z,1.10
2022-10-04T08:07:17.626Z,0.98
2022-10-04T08:09:53.491Z,1.00
2022-10-04T08:12:32.464Z,0.90
2022-10-04T08:15:25.336Z,1.45
2022-10-04T08:18:29.056Z,0.82
2022-10-04T08:21:06.287Z,1.10
2022-10-04T08:24:16.947Z,0.73
2022-10-04T08:27:12.919Z,1.27
2022-10-04T08:30:19.913Z,1.10
2022-10-04T08:33:09.534Z,1.25
2022-10-04T08:35:50.910Z,1.05
2022-10-04T08:38:32.919Z,0.95
2022-10-04T08:41:22.844Z,0.82
2022-10-04T08:44:29.400Z,0.85
2022-10-04T08:47:23.970Z,0.90
2022-10-04T08:50:05.903Z,0.80
2022-10-04T08:52:58.861Z,0.98
2022-10-04T08:56:13.293Z,0.70
2022-10-04T08:58:55.203Z,1.10
2022-10-04T09:01:46.416Z,0.80
2022-10-04T09:04:48.517Z,1.20
2022-10-04T09:07:42.427Z,1.00
2022-10-04T09:10:35.963Z,0.93
2022-10-04T09:13:26.994Z,0.90
2022-10-04T09:16:10.736Z,0.93
2022-10-04T09:19:08.587Z,0.88
2022-10-04T09:21:47.809Z,0.88
2022-10-04T09:24:52.946Z,1.10
2022-10-04T09:27:59.578Z,0.90
2022-10-04T09:30:51.875Z,1.15
2022-10-04T09:33:40.167Z,0.80
2022-10-04T09:36:44.259Z,0.80
2022-10-04T09:39:32.656Z,1.00
2022-10-04T09:42:32.867Z,1.15
2022-10-04T09:45:18.313Z,1.13
2022-10-04T09:48:12.220Z,1.00
2022-10-04T09:51:09.557Z,0.88
2022-10-04T09:53:41.940Z,0.90
2022-10-04T09:56:35.828Z,1.00
2022-10-04T09:59:34.114Z,1.08
2022-10-04T10:02:42.539Z,1.08
2022-10-04T10:05:18.432Z,0.90
2022-10-04T10:08:11.777Z,0.93
2022-10-04T10:11:21.059Z,1.13
2022-10-04T10:14:24.431Z,0.80
2022-10-04T10:17:30.897Z,1.30
2022-10-04T10:20:31.353Z,0.88
2022-10-04T10:23:08.843Z,0.88
2022-10-04T10:25:49.015Z,0.90
2022-10-04T10:29:04.194Z,1.30
2022-10-04T10:32:02.411Z,1.05
2022-10-04T10:34:53.891Z,0.98
2022-10-04T10:37:41.204Z,0.98
2022-10-04T10:40:50.127Z,1.00
2022-10-04T10:43:37.981Z,1.02
2022-10-04T10:46:21.857Z,1.20
2022-10-04T10:49:00.596Z,1.13
2022-10-04T10:51:45.792Z,0.95
2022-10-04T10:54:43.036Z,0.90
2022-10-04T10:57:52.613Z,1.00
2022-10-04T11:00:42.257Z,1.05
2022-10-04T11:03:50.129Z,1.10
2022-10-04T11:06:32.700Z,1.00
2022-10-04T11:09:31.671Z,1.33
2022-10-04T11:12:19.948Z,0.82
2022-10-04T11:15:08.456Z,1.33
2022-10-04T11:17:58.603Z,1.10
2022-10-04T11:20:40.823Z,1.13
2022-10-04T11:23:39.016Z,1.30
2022-10-04T11:26:27.492Z,1.00
2022-10-04T11:29:19.576Z,1.20
2022-10-04T11:32:04.897Z,0.90
2022-10-04T11:35:01.494Z,1.00
2022-10-04T11:37:52.665Z,0.88
2022-10-04T11:40:54.687Z,1.10
2022-10-04T11:43:34.047Z,1.10
2022-10-04T11:46:26.072Z,1.17
2022-10-04T11:49:10.486Z,0.95
2022-10-04T11:51:49.653Z,0.98
2022-10-04T11:54:45.909Z,1.10
2022-10-04T11:57:33.273Z,1.35
2022-10-04T12:00:03.415Z,1.10
2022-10-04T12:02:52.620Z,1.20
2022-10-04T12:05:46.836Z,1.10
2022-10-04T12:09:07.319Z,1.30
2022-10-04T12:12:13.593Z,1.17
2022-10-04T12:15:13.831Z,1.30
2022-10-04T12:18:08.243Z,1.50
2022-10-04T12:20:55.330Z,1.50
2022-10-04T12:24:01.791Z,1.67
2022-10-04T12:27:08.185Z,1.27
2022-10-04T12:29:47.219Z,1.75
2022-10-04T12:32:58.173Z,1.60
2022-10-04T12:35:35.476Z,1.60
2022-10-04T12:38:26.376Z,1.50
2022-10-04T12:41:13.763Z,1.20
2022-10-04T12:43:54.896Z,1.30
2022-10-04T12:46:25.312Z,1.38
2022-10-04T12:49:17.345Z,1.45
2022-10-04T12:52:05.570Z,1.08
2022-10-04T12:54:51.459Z,1.30
2022-10-04T12:57:47.941Z,1.25
2022-10-04T13:00:20.923Z,1.25
2022-10-04T13:03:06.527Z,1.50
2022-10-04T13:06:04.627Z,1.50
2022-10-04T13:09:03.311Z,1.27
2022-10-04T13:11:52.883Z,1.52
2022-10-04T13:14:44.342Z,1.25
2022-10-04T13:17:43.531Z,1.52
2022-10-04T13:20:46.715Z,1.50
2022-10-04T13:23:37.792Z,1.50
2022-10-04T13:26:29.159Z,1.50
2022-10-04T13:29:22.671Z,1.50
2022-10-04T13:32:15.874Z,1.45
2022-10-04T13:34:56.302Z,1.48
2022-10-04T13:37:37.542Z,1.70
2022-10-04T13:40:16.981Z,1.42
2022-10-04T13:42:56.130Z,1.42
2022-10-04T13:45:51.415Z,1.48
2022-10-04T13:48:24.915Z,1.75
2022-10-04T13:51:02.014Z,1.85
2022-10-04T13:54:23.621Z,1.67
2022-10-04T13:57:17.853Z,1.40
2022-10-04T14:00:16.791Z,1.50
2022-10-04T14:03:15.214Z,1.42
2022-10-04T14:05:54.454Z,1.27
2022-10-04T14:08:53.988Z,1.27
2022-10-04T14:11:52.652Z,1.23
2022-10-04T14:14:59.307Z,1.55
2022-10-04T14:17:38.108Z,1.38
2022-10-04T14:20:35.261Z,1.67
2022-10-04T14:23:22.722Z,1.40
2022-10-04T14:26:29.962Z,1.20
2022-10-04T14:29:09.594Z,1.10
2022-10-04T14:31:52.399Z,1.60
2022-10-04T14:34:40.512Z,1.60
2022-10-04T14:37:28.765Z,1.58
2022-10-04T14:40:25.894Z,1.63
2022-10-04T14:43:16.717Z,1.48
2022-10-04T14:46:08.907Z,1.45
2022-10-04T14:48:44.265Z,1.20
2022-10-04T14:51:21.070Z,1.05
2022-10-04T14:53:51.563Z,1.40
2022-10-04T14:56:37.863Z,1.30
2022-10-04T14:59:38.214Z,1.60
2022-10-04T15:02:33.275Z,1.25
2022-10-04T15:05:31.319Z,1.10
2022-10-04T15:08:33.547Z,1.08
2022-10-04T15:11:19.130Z,1.40
2022-10-04T15:14:04.495Z,1.52
2022-10-04T15:16:58.470Z,1.35
2022-10-04T15:20:01.081Z,1.13
2022-10-04T15:23:03.453Z,1.50
2022-10-04T15:25:40.442Z,1.13
2022-10-04T15:28:39.023Z,1.17
2022-10-04T15:31:29.980Z,1.10
2022-10-04T15:34:08.764Z,1.10
2022-10-04T15:36:50.903Z,1.20
2022-10-04T15:39:47.782Z,1.15
2022-10-04T15:42:30.251Z,1.17
2022-10-04T15:45:06.060Z,1.40
2022-10-04T15:48:23.346Z,1.20
2022-10-04T15:51:02.226Z,1.30
2022-10-04T15:53:47.296Z,1.27
2022-10-04T15:56:23.624Z,1.00
2022-10-04T15:59:38.136Z,1.05
2022-10-04T16:02:51.975Z,1.30
2022-10-04T16:05:28.231Z,1.00
2022-10-04T16:08:34.135Z,1.20
2022-10-04T16:11:37.862Z,1.05
2022-10-04T16:14:35.654Z,1.10
2022-10-04T16:17:23.921Z,1.17
2022-10-04T16:20:04.599Z,0.90
2022-10-04T16:22:39.931Z,1.27
2022-10-04T16:25:28.390Z,1.05
2022-10-04T16:28:05.964Z,1.13
2022-10-04T16:31:23.224Z,0.98
2022-10-04T16:34:05.089Z,1.35
2022-10-04T16:37:00.397Z,1.02
2022-10-04T16:40:07.376Z,1.10
2022-10-04T16:42:37.579Z,1.02
2022-10-04T16:45:10.919Z,1.00
2022-10-04T16:48:02.428Z,1.27
2022-10-04T16:50:50.676Z,1.00
2022-10-04T16:53:45.483Z,0.80
2022-10-04T16:56:19.548Z,0.88
2022-10-04T16:59:06.992Z,0.80
2022-10-04T17:01:42.927Z,1.20
2022-10-04T17:04:29.088Z,0.90
2022-10-04T17:07:23.221Z,1.00
2022-10-04T17:09:57.737Z,0.93
2022-10-04T17:12:50.012Z,1.00
2022-10-04T17:15:49.300Z,0.88
2022-10-04T17:18:37.957Z,1.02
2022-10-04T17:21:47.984Z,0.82
2022-10-04T17:25:08.625Z,0.90
2022-10-04T17:27:50.035Z,1.20
2022-10-04T17:30:23.128Z,0.95
2022-10-04T17:33:09.595Z,1.02
2022-10-04T17:36:08.553Z,1.08
2022-10-04T17:38:56.780Z,0.95
2022-10-04T17:41:48.021Z,0.82
2022-10-04T17:44:35.823Z,1.05
2022-10-04T17:47:26.681Z,1.13
2022-10-04T17:50:25.395Z,0.90
2022-10-04T17:53:20.810Z,0.90
2022-10-04T17:55:57.551Z,1.00
2022-10-04T17:58:46.806Z,0.90
2022-10-04T18:01:45.066Z,0.70
2022-10-04T18:04:25.180Z,0.70
2022-10-04T18:07:04.433Z,0.88
2022-10-04T18:09:52.839Z,0.90
2022-10-04T18:12:31.388Z,0.90
2022-10-04T18:15:23.317Z,0.85
2022-10-04T18:17:55.067Z,0.80
2022-10-04T18:20:37.303Z,0.80
2022-10-04T18:23:33.083Z,0.98
2022-10-04T18:26:12.679Z,0.80
2022-10-04T18:28:43.131Z,0.90
2022-10-04T18:31:41.329Z,0.90
2022-10-04T18:34:40.336Z,0.60
2022-10-04T18:37:35.317Z,0.77
2022-10-04T18:40:24.015Z,0.70
2022-10-04T18:42:59.166Z,0.75
2022-10-04T18:45:33.900Z,0.70
2022-10-04T18:48:16.868Z,0.80
2022-10-04T18:50:48.775Z,0.70
2022-10-04T18:53:52.633Z,0.73
2022-10-04T18:56:24.106Z,1.00
2022-10-04T18:59:39.827Z,0.82
2022-10-04T19:02:19.157Z,0.60
2022-10-04T19:04:59.708Z,0.80
2022-10-04T19:07:56.857Z,0.80
2022-10-04T19:10:34.532Z,0.80
2022-10-04T19:13:22.797Z,0.70
2022-10-04T19:16:26.218Z,0.77
2022-10-04T19:19:13.024Z,0.77
2022-10-04T19:21:48.194Z,0.80
2022-10-04T19:24:30.303Z,0.82
2022-10-04T19:27:06.972Z,0.85
2022-10-04T19:30:04.469Z,0.80
2022-10-04T19:32:37.685Z,0.80
2022-10-04T19:35:47.810Z,0.70
2022-10-04T19:38:32.703Z,1.05
2022-10-04T19:41:28.678Z,0.80
2022-10-04T19:44:22.424Z,0.70
2022-10-04T19:47:15.565Z,0.90
2022-10-04T19:50:05.270Z,0.90
2022-10-04T19:52:54.964Z,0.80
2022-10-04T19:55:45.546Z,0.80
2022-10-04T19:58:29.550Z,0.60
2022-10-04T20:00:59.899Z,0.60
2022-10-04T20:03:30.850Z,0.80
2022-10-04T20:06:01.412Z,0.77
2022-10-04T20:08:50.096Z,0.68
2022-10-04T20:11:20.590Z,0.70
2022-10-04T20:14:11.861Z,0.70
2022-10-04T20:16:51.511Z,0.70
2022-10-04T20:19:42.273Z,0.98
2022-10-04T20:22:15.492Z,0.60
2022-10-04T20:24:46.327Z,0.70
2022-10-04T20:27:37.917Z,0.73
2022-10-04T20:30:16.734Z,0.60
2022-10-04T20:32:47.095Z,0.57
2022-10-04T20:35:54.956Z,0.50
2022-10-04T20:38:55.529Z,0.52
2022-10-04T20:41:54.477Z,0.50
2022-10-04T20:44:43.088Z,0.65
2022-10-04T20:47:42.753Z,0.50
2022-10-04T20:50:13.543Z,0.63
2022-10-04T20:52:54.426Z,0.70
2022-10-04T20:55:37.068Z,0.70
2022-10-04T20:58:25.208Z,0.60
2022-10-04T21:00:57.265Z,0.60
2022-10-04T21:03:27.917Z,0.50
2022-10-04T21:06:10.812Z,0.50
2022-10-04T21:08:42.716Z,0.60
2022-10-04T21:11:19.878Z,0.65
2022-10-04T21:13:52.384Z,0.30
2022-10-04T21:16:44.361Z,0.50
2022-10-04T21:19:40.396Z,0.40
2022-10-04T21:22:34.308Z,0.50
2022-10-04T21:25:29.378Z,0.45
2022-10-04T21:28:25.786Z,0.55
2022-10-04T21:30:55.978Z,0.60
2022-10-04T21:33:26.159Z,1.30
2022-10-04T21:35:56.304Z,0.47
2022-10-04T21:38:27.099Z,0.35
2022-10-04T21:40:57.887Z,0.50
2022-10-04T21:43:28.418Z,0.50
2022-10-04T21:45:58.921Z,0.30
2022-10-04T21:48:29.283Z,0.50
2022-10-04T21:50:59.439Z,0.40
2022-10-04T21:53:29.530Z,0.40
2022-10-04T21:55:59.730Z,0.60
2022-10-04T21:58:29.964Z,0.65
2022-10-04T22:01:00.281Z,0.30
2022-10-04T22:03:30.616Z,0.52
2022-10-04T22:06:00.792Z,0.50
2022-10-04T22:08:31.007Z,0.50
2022-10-04T22:11:01.208Z,0.63
2022-10-04T22:13:31.560Z,0.40
2022-10-04T22:16:01.830Z,0.40
2022-10-04T22:18:33.239Z,0.43
2022-10-04T22:21:04.015Z,0.30
2022-10-04T22:23:41.162Z,0.45
2022-10-04T22:26:18.851Z,0.40
2022-10-04T22:28:58.085Z,0.30
2022-10-04T22:31:31.224Z,0.40
2022-10-04T22:34:01.764Z,0.30
2022-10-04T22:36:41.945Z,0.30
2022-10-04T22:39:12.303Z,0.40
2022-10-04T22:41:43.795Z,0.40
2022-10-04T22:44:16.958Z,0.38
2022-10-04T22:46:53.712Z,0.60
2022-10-04T22:49:29.188Z,0.60
2022-10-04T22:52:01.148Z,0.60
2022-10-04T22:54:36.897Z,0.40
2022-10-04T22:57:07.117Z,0.40
2022-10-04T22:59:43.067Z,0.22
2022-10-04T23:02:33.109Z,0.30
2022-10-04T23:05:23.468Z,0.40
2022-10-04T23:07:54.274Z,0.50
2022-10-04T23:10:24.772Z,0.50
2022-10-04T23:12:55.569Z,0.30
2022-10-04T23:15:25.729Z,0.50
2022-10-04T23:17:58.984Z,0.32
2022-10-04T23:20:31.808Z,0.30
2022-10-04T23:23:02.601Z,0.60
2022-10-04T23:25:33.405Z,0.40
2022-10-04T23:28:15.745Z,0.40
2022-10-04T23:31:06.645Z,0.40
2022-10-04T23:33:37.404Z,0.40
2022-10-04T23:36:13.941Z,0.30
2022-10-04T23:38:58.677Z,0.40
2022-10-04T23:41:29.563Z,0.40
2022-10-04T23:43:59.923Z,0.52
2022-10-04T23:46:32.959Z,0.35
2022-10-04T23:49:03.191Z,0.52
2022-10-04T23:51:33.545Z,0.30
2022-10-04T23:54:03.739Z,0.50
2022-10-04T23:56:34.075Z,0.32
2022-10-04T23:59:04.192Z,0.40
